Time;durP1;ratioP1;P1;durP2;ratioP2;P2;SDS_P1;SDS_P2;PMS_P1;PMS_P2;Temp;Humidity;BMP_temperature;BMP_pressure;BME280_temperature;BME280_humidity;BME280_pressure;Samples;Min_cycle;Max_cycle;Signal;HPM_P1;HPM_P2
2022/01/14 00:01:39;;;;;;;;;;;21.70;48.10;;;;;;5081220;28;19927;-72
2022/01/14 00:04:05;;;;;;;;;;;21.70;48.10;;;;;;5081650;28;20283;-66
2022/01/14 00:06:30;;;;;;;;;;;21.70;48.10;;;;;;5085759;28;19912;-65
2022/01/14 00:09:04;;;;;;;;;;;21.60;48.10;;;;;;5079085;28;19999;-67
2022/01/14 00:11:31;;;;;;;;;;;21.60;48.10;;;;;;5082746;28;20366;-70
2022/01/14 00:16:31;;;;;;;;;;;21.60;48.20;;;;;;5079421;28;20421;-69
2022/01/14 00:18:58;;;;;;;;;;;21.60;48.20;;;;;;5084267;28;19915;-67
2022/01/14 00:21:27;;;;;;;;;;;21.50;48.10;;;;;;5080834;28;19920;-68
2022/01/14 00:24:11;;;;;;;;;;;21.50;48.20;;;;;;5085039;28;19919;-71
2022/01/14 00:32:58;;;;;;;;;;;21.40;48.20;;;;;;5085202;28;20598;-67
2022/01/14 00:34:52;;;;;;;;;;;21.40;48.20;;;;;;5075553;28;19912;-70
2022/01/14 00:37:18;;;;;;;;;;;21.50;48.30;;;;;;5083948;28;20368;-66
2022/01/14 00:39:44;;;;;;;;;;;21.40;48.20;;;;;;5084220;28;19923;-68
2022/01/14 00:42:10;;;;;;;;;;;21.40;48.20;;;;;;5082986;28;19996;-70
2022/01/14 00:44:36;;;;;;;;;;;21.40;48.20;;;;;;5081058;28;19919;-70
2022/01/14 00:47:02;;;;;;;;;;;21.40;48.30;;;;;;5085300;28;20348;-65
2022/01/14 00:49:28;;;;;;;;;;;21.30;48.30;;;;;;5082687;28;19931;-68
2022/01/14 00:51:54;;;;;;;;;;;21.40;48.30;;;;;;5081984;28;19924;-68
2022/01/14 00:54:19;;;;;;;;;;;21.30;48.30;;;;;;5079692;28;19944;-70
2022/01/14 00:56:49;;;;;;;;;;;21.30;48.40;;;;;;5085503;28;19912;-69
2022/01/14 00:59:15;;;;;;;;;;;21.30;48.40;;;;;;5080525;28;19920;-67
2022/01/14 01:01:44;;;;;;;;;;;21.30;48.40;;;;;;5082301;28;20411;-67
2022/01/14 01:04:11;;;;;;;;;;;21.30;48.40;;;;;;5082077;28;19916;-68
2022/01/14 01:06:36;;;;;;;;;;;21.30;48.40;;;;;;5083678;28;19963;-67
2022/01/14 01:09:06;;;;;;;;;;;21.20;48.30;;;;;;5084601;28;19962;-70
2022/01/14 01:11:35;;;;;;;;;;;21.20;48.30;;;;;;5085023;28;20000;-66
2022/01/14 01:14:10;;;;;;;;;;;21.20;48.30;;;;;;5085510;28;20078;-70
2022/01/14 01:16:36;;;;;;;;;;;21.20;48.40;;;;;;5081739;28;19915;-68
2022/01/14 01:19:02;;;;;;;;;;;21.20;48.30;;;;;;5081847;28;19942;-68
2022/01/14 01:21:27;;;;;;;;;;;21.20;48.30;;;;;;5083414;28;19965;-67
2022/01/14 01:23:53;;;;;;;;;;;21.20;48.30;;;;;;5082320;28;19916;-67
2022/01/14 01:26:27;;;;;;;;;;;21.20;48.30;;;;;;5082825;28;19916;-67
2022/01/14 01:29:05;;;;;;;;;;;21.10;48.30;;;;;;5083674;28;19943;-66
2022/01/14 01:31:40;;;;;;;;;;;21.10;48.30;;;;;;5081704;28;19969;-67
2022/01/14 01:34:07;;;;;;;;;;;21.10;48.30;;;;;;5080384;28;19916;-68
2022/01/14 01:36:33;;;;;;;;;;;21.10;48.40;;;;;;5083326;28;19935;-67
2022/01/14 01:38:58;;;;;;;;;;;21.10;48.40;;;;;;5081024;28;19916;-68
2022/01/14 01:41:24;;;;;;;;;;;21.10;48.40;;;;;;5081149;28;19930;-68
2022/01/14 01:43:54;;;;;;;;;;;21.10;48.40;;;;;;5084979;28;19916;-70
2022/01/14 01:46:20;;;;;;;;;;;21.10;48.50;;;;;;5088965;28;19996;-66
2022/01/14 01:48:47;;;;;;;;;;;21.10;48.50;;;;;;5087112;28;19965;-70
2022/01/14 01:51:12;;;;;;;;;;;21.00;48.50;;;;;;5088698;28;19920;-65
2022/01/14 01:53:38;;;;;;;;;;;21.00;48.40;;;;;;5082057;28;19916;-68
2022/01/14 01:56:04;;;;;;;;;;;21.00;48.50;;;;;;5086076;28;19997;-68
2022/01/14 01:58:29;;;;;;;;;;;21.00;48.50;;;;;;5088720;28;19912;-68
2022/01/14 02:00:55;;;;;;;;;;;21.00;48.50;;;;;;5088773;28;19916;-70
2022/01/14 02:03:20;;;;;;;;;;;21.00;48.50;;;;;;5085209;28;19912;-67
2022/01/14 02:05:46;;;;;;;;;;;20.90;48.50;;;;;;5086931;28;19912;-68
2022/01/14 02:08:12;;;;;;;;;;;20.90;48.50;;;;;;5088147;28;19916;-68
2022/01/14 02:10:39;;;;;;;;;;;20.90;48.50;;;;;;5086933;28;19923;-66
2022/01/14 02:13:05;;;;;;;;;;;20.90;48.50;;;;;;5083401;28;19919;-67
2022/01/14 02:15:45;;;;;;;;;;;20.90;48.60;;;;;;5085587;28;20570;-66
2022/01/14 02:23:24;;;;;;;;;;;20.90;48.70;;;;;;5083501;28;19927;-69
2022/01/14 02:25:50;;;;;;;;;;;20.90;48.60;;;;;;5087661;28;19912;-70
2022/01/14 02:28:17;;;;;;;;;;;20.80;48.60;;;;;;5087725;28;19916;-66
2022/01/14 02:30:48;;;;;;;;;;;20.80;48.60;;;;;;5083723;28;20346;-65
2022/01/14 02:33:14;;;;;;;;;;;20.80;48.70;;;;;;5085972;28;19935;-67
2022/01/14 02:35:41;;;;;;;;;;;20.80;48.70;;;;;;5087908;28;19916;-70
2022/01/14 02:38:08;;;;;;;;;;;20.80;48.70;;;;;;5087383;28;19916;-68
2022/01/14 02:40:34;;;;;;;;;;;20.70;48.70;;;;;;5086688;28;19962;-67
2022/01/14 02:43:01;;;;;;;;;;;20.70;48.70;;;;;;5087769;28;19912;-66
2022/01/14 02:45:30;;;;;;;;;;;20.70;48.70;;;;;;5086858;28;19943;-67
2022/01/14 02:47:55;;;;;;;;;;;20.70;48.70;;;;;;5082084;28;19916;-69
2022/01/14 02:50:23;;;;;;;;;;;20.70;48.70;;;;;;5085911;28;20321;-68
2022/01/14 02:55:19;;;;;;;;;;;20.70;48.80;;;;;;5085879;28;19924;-70
2022/01/14 02:57:46;;;;;;;;;;;20.70;48.80;;;;;;5084610;28;19916;-70
2022/01/14 03:00:13;;;;;;;;;;;20.70;48.80;;;;;;5086095;28;19958;-70
2022/01/14 03:02:43;;;;;;;;;;;20.70;48.80;;;;;;5084047;28;19919;-68
2022/01/14 03:05:09;;;;;;;;;;;20.70;48.80;;;;;;5083845;28;19912;-68
2022/01/14 03:07:35;;;;;;;;;;;20.60;48.80;;;;;;5084217;28;19990;-65
2022/01/14 03:10:01;;;;;;;;;;;20.60;48.80;;;;;;5078550;28;20340;-66
2022/01/14 03:12:26;;;;;;;;;;;20.60;48.80;;;;;;5083491;28;20015;-66
2022/01/14 03:14:53;;;;;;;;;;;20.60;48.80;;;;;;5083469;28;19922;-64
2022/01/14 03:17:19;;;;;;;;;;;20.60;48.90;;;;;;5083395;28;19916;-69
2022/01/14 03:19:46;;;;;;;;;;;20.60;48.80;;;;;;5083725;28;19961;-65
2022/01/14 03:22:26;;;;;;;;;;;20.60;48.90;;;;;;5088290;28;19920;-70
2022/01/14 03:27:17;;;;;;;;;;;20.60;48.90;;;;;;5085077;28;20607;-65
2022/01/14 03:29:44;;;;;;;;;;;20.60;48.90;;;;;;5088522;28;20350;-68
2022/01/14 03:32:09;;;;;;;;;;;20.60;48.90;;;;;;5086632;28;20022;-69
2022/01/14 03:34:35;;;;;;;;;;;20.60;48.90;;;;;;5083270;28;20307;-68
2022/01/14 03:37:00;;;;;;;;;;;20.50;48.90;;;;;;5084571;28;19940;-68
2022/01/14 03:39:26;;;;;;;;;;;20.50;48.90;;;;;;5083496;28;19956;-69
2022/01/14 03:41:51;;;;;;;;;;;20.50;49.00;;;;;;5084890;28;20290;-68
2022/01/14 03:44:17;;;;;;;;;;;20.50;49.00;;;;;;5086715;28;19920;-68
2022/01/14 03:46:43;;;;;;;;;;;20.50;49.00;;;;;;5087094;28;19935;-68
2022/01/14 03:49:09;;;;;;;;;;;20.50;49.00;;;;;;5080217;28;21004;-68
2022/01/14 03:51:34;;;;;;;;;;;20.50;49.00;;;;;;5085840;28;19923;-64
2022/01/14 03:54:00;;;;;;;;;;;20.50;49.00;;;;;;5085968;28;19970;-68
2022/01/14 03:56:26;;;;;;;;;;;20.50;49.00;;;;;;5085518;28;19951;-67
2022/01/14 03:58:52;;;;;;;;;;;20.50;49.00;;;;;;5085870;28;19920;-68
2022/01/14 04:01:19;;;;;;;;;;;20.50;49.10;;;;;;5079082;28;19920;-66
2022/01/14 04:03:45;;;;;;;;;;;20.50;49.10;;;;;;5084210;28;20112;-70
2022/01/14 04:06:11;;;;;;;;;;;20.40;49.00;;;;;;5086473;28;19958;-68
2022/01/14 04:08:37;;;;;;;;;;;20.40;49.00;;;;;;5086491;28;19959;-64
2022/01/14 04:11:03;;;;;;;;;;;20.40;49.00;;;;;;5082697;28;20010;-67
2022/01/14 04:13:43;;;;;;;;;;;20.40;49.10;;;;;;5086714;28;19959;-67
2022/01/14 04:16:08;;;;;;;;;;;20.50;49.10;;;;;;5078783;28;20342;-65
2022/01/14 04:18:34;;;;;;;;;;;20.40;49.10;;;;;;5083944;28;19916;-69
2022/01/14 04:20:59;;;;;;;;;;;20.40;49.10;;;;;;5079501;28;19985;-66
2022/01/14 04:23:25;;;;;;;;;;;20.40;49.20;;;;;;5084528;28;19927;-68
2022/01/14 04:25:52;;;;;;;;;;;20.40;49.20;;;;;;5083911;28;20361;-67
2022/01/14 04:28:18;;;;;;;;;;;20.40;49.20;;;;;;5083323;28;19920;-70
2022/01/14 04:30:44;;;;;;;;;;;20.40;49.20;;;;;;5086783;28;20102;-68
2022/01/14 04:33:10;;;;;;;;;;;20.40;49.30;;;;;;5086031;28;19923;-68
2022/01/14 04:35:36;;;;;;;;;;;20.40;49.20;;;;;;5086036;28;20344;-69
2022/01/14 04:38:01;;;;;;;;;;;20.40;49.30;;;;;;5082760;28;20371;-67
2022/01/14 04:40:27;;;;;;;;;;;20.40;49.30;;;;;;5081647;28;20314;-67
2022/01/14 04:42:54;;;;;;;;;;;20.40;49.30;;;;;;5084593;28;19955;-68
2022/01/14 04:48:11;;;;;;;;;;;20.30;49.30;;;;;;5067660;28;19920;-66
2022/01/14 04:50:37;;;;;;;;;;;20.30;49.30;;;;;;5082830;28;19986;-65
2022/01/14 04:53:03;;;;;;;;;;;20.30;49.40;;;;;;5086084;28;19985;-67
2022/01/14 04:55:29;;;;;;;;;;;20.30;49.50;;;;;;5080066;28;19978;-67
2022/01/14 04:57:56;;;;;;;;;;;20.30;49.50;;;;;;5084882;28;19928;-69
2022/01/14 05:00:25;;;;;;;;;;;20.30;49.50;;;;;;5081969;28;19916;-70
2022/01/14 05:02:52;;;;;;;;;;;20.30;49.60;;;;;;5083673;28;19991;-70
2022/01/14 05:05:20;;;;;;;;;;;20.30;49.60;;;;;;5085582;28;19916;-68
2022/01/14 05:07:47;;;;;;;;;;;20.30;49.60;;;;;;5086731;28;19912;-68
2022/01/14 05:12:41;;;;;;;;;;;20.20;49.60;;;;;;5082180;28;19916;-68
2022/01/14 05:15:07;;;;;;;;;;;20.20;49.60;;;;;;5082860;28;19968;-68
2022/01/14 05:17:33;;;;;;;;;;;20.30;49.70;;;;;;5080738;28;20084;-68
2022/01/14 05:19:58;;;;;;;;;;;20.30;49.70;;;;;;5081628;28;20016;-70
2022/01/14 05:22:27;;;;;;;;;;;20.30;49.70;;;;;;5090081;28;20395;-68
2022/01/14 05:24:53;;;;;;;;;;;20.20;49.70;;;;;;5084546;28;19955;-65
2022/01/14 05:27:19;;;;;;;;;;;20.20;49.70;;;;;;5087071;28;19912;-68
2022/01/14 05:29:44;;;;;;;;;;;20.20;49.70;;;;;;5087903;28;19923;-67
2022/01/14 05:32:13;;;;;;;;;;;20.20;49.70;;;;;;5087947;28;20379;-70
2022/01/14 05:34:39;;;;;;;;;;;20.20;49.70;;;;;;5082917;28;19916;-68
2022/01/14 05:37:05;;;;;;;;;;;20.20;49.70;;;;;;5086596;28;20371;-67
2022/01/14 05:39:31;;;;;;;;;;;20.20;49.80;;;;;;5085954;28;19920;-70
2022/01/14 05:41:59;;;;;;;;;;;20.20;49.80;;;;;;5087846;28;19919;-70
2022/01/14 05:44:25;;;;;;;;;;;20.20;49.80;;;;;;5088888;28;19922;-68
2022/01/14 05:46:50;;;;;;;;;;;20.20;49.80;;;;;;5082242;28;19920;-67
2022/01/14 05:49:17;;;;;;;;;;;20.20;49.90;;;;;;5088309;28;19940;-68
2022/01/14 05:51:43;;;;;;;;;;;20.20;49.90;;;;;;5085740;28;20555;-64
2022/01/14 05:54:08;;;;;;;;;;;20.10;49.80;;;;;;5087643;28;19920;-66
2022/01/14 05:56:34;;;;;;;;;;;20.20;49.90;;;;;;5086878;28;19935;-70
2022/01/14 05:59:00;;;;;;;;;;;20.10;49.90;;;;;;5087091;28;19920;-67
2022/01/14 06:01:25;;;;;;;;;;;20.20;49.90;;;;;;5085736;28;20383;-67
2022/01/14 06:03:51;;;;;;;;;;;20.10;49.90;;;;;;5086849;28;20025;-68
2022/01/14 06:06:16;;;;;;;;;;;20.10;49.90;;;;;;5087070;28;20324;-67
2022/01/14 06:08:46;;;;;;;;;;;20.10;49.90;;;;;;5084576;28;19934;-70
2022/01/14 06:11:12;;;;;;;;;;;20.10;49.90;;;;;;5084852;28;19915;-68
2022/01/14 06:13:37;;;;;;;;;;;20.10;49.90;;;;;;5086967;28;19931;-70
2022/01/14 06:16:03;;;;;;;;;;;20.10;50.00;;;;;;5084227;28;19920;-66
2022/01/14 06:18:28;;;;;;;;;;;20.10;50.00;;;;;;5079902;28;19923;-68
2022/01/14 06:20:54;;;;;;;;;;;20.10;50.00;;;;;;5084601;28;20048;-70
2022/01/14 06:23:20;;;;;;;;;;;20.20;51.10;;;;;;5085892;28;19919;-70
2022/01/14 06:25:45;;;;;;;;;;;20.30;51.60;;;;;;5081088;28;19912;-71
2022/01/14 06:28:11;;;;;;;;;;;20.50;51.50;;;;;;5086521;28;19923;-72
2022/01/14 06:30:36;;;;;;;;;;;20.80;51.30;;;;;;5085650;28;19920;-68
2022/01/14 06:33:02;;;;;;;;;;;21.00;51.10;;;;;;5086509;28;19923;-71
2022/01/14 06:35:27;;;;;;;;;;;21.20;50.90;;;;;;5087587;28;20549;-71
2022/01/14 06:37:53;;;;;;;;;;;21.30;50.70;;;;;;5088319;28;20443;-69
2022/01/14 06:40:18;;;;;;;;;;;21.50;50.60;;;;;;5086224;28;19920;-68
2022/01/14 06:42:44;;;;;;;;;;;21.70;50.50;;;;;;5084234;28;19913;-67
2022/01/14 06:45:10;;;;;;;;;;;21.90;50.40;;;;;;5087165;28;20481;-68
2022/01/14 06:47:35;;;;;;;;;;;22.00;50.10;;;;;;5083803;28;20269;-69
2022/01/14 06:50:02;;;;;;;;;;;22.20;50.10;;;;;;5089201;28;19931;-71
2022/01/14 06:52:27;;;;;;;;;;;22.20;49.10;;;;;;5083370;28;20122;-66
2022/01/14 06:54:53;;;;;;;;;;;22.10;48.60;;;;;;5080359;28;20028;-71
2022/01/14 06:57:19;;;;;;;;;;;22.00;48.90;;;;;;5085434;28;19918;-70
2022/01/14 06:59:44;;;;;;;;;;;21.90;49.20;;;;;;5086304;28;20012;-73
2022/01/14 07:02:10;;;;;;;;;;;21.80;49.50;;;;;;5083000;28;19948;-70
2022/01/14 07:04:36;;;;;;;;;;;21.80;49.70;;;;;;5087821;28;19917;-68
2022/01/14 07:07:02;;;;;;;;;;;21.80;49.90;;;;;;5080449;28;19969;-70
2022/01/14 07:09:29;;;;;;;;;;;21.80;50.00;;;;;;5079936;28;19920;-66
2022/01/14 07:11:57;;;;;;;;;;;21.80;50.50;;;;;;5085036;28;20007;-72
2022/01/14 07:14:23;;;;;;;;;;;22.10;51.20;;;;;;5088231;28;19912;-72
2022/01/14 07:16:48;;;;;;;;;;;22.40;50.00;;;;;;5082568;28;19916;-71
2022/01/14 07:19:16;;;;;;;;;;;22.60;49.70;;;;;;5085610;28;19917;-69
2022/01/14 07:21:41;;;;;;;;;;;22.80;49.60;;;;;;5084513;28;19954;-69
2022/01/14 07:24:07;;;;;;;;;;;23.10;49.60;;;;;;5081803;28;19959;-71
2022/01/14 07:26:33;;;;;;;;;;;23.30;49.30;;;;;;5080811;28;19916;-70
2022/01/14 07:28:59;;;;;;;;;;;23.30;49.00;;;;;;5084862;28;19935;-66
2022/01/14 07:31:25;;;;;;;;;;;23.20;49.20;;;;;;5085497;28;19919;-66
2022/01/14 07:33:50;;;;;;;;;;;23.00;49.30;;;;;;5079354;28;19912;-65
2022/01/14 07:36:16;;;;;;;;;;;22.90;49.50;;;;;;5085505;28;20329;-67
2022/01/14 07:38:41;;;;;;;;;;;22.90;49.60;;;;;;5086115;28;19923;-69
2022/01/14 07:41:07;;;;;;;;;;;22.90;49.80;;;;;;5086231;28;19997;-72
2022/01/14 07:43:34;;;;;;;;;;;22.90;49.80;;;;;;5084218;28;19912;-70
2022/01/14 07:46:00;;;;;;;;;;;22.80;49.90;;;;;;5086998;28;19920;-68
2022/01/14 07:48:25;;;;;;;;;;;22.90;50.30;;;;;;5083357;28;19916;-70
2022/01/14 07:50:51;;;;;;;;;;;23.10;50.20;;;;;;5082933;28;20019;-68
2022/01/14 07:53:17;;;;;;;;;;;23.40;49.60;;;;;;5080131;28;19974;-70
2022/01/14 07:55:42;;;;;;;;;;;23.70;49.10;;;;;;5079908;28;19917;-74
2022/01/14 07:58:08;;;;;;;;;;;23.70;48.80;;;;;;5087553;28;20007;-68
2022/01/14 08:00:35;;;;;;;;;;;23.70;49.10;;;;;;5084401;28;19923;-68
2022/01/14 08:03:01;;;;;;;;;;;23.60;49.40;;;;;;5081379;28;19931;-69
2022/01/14 08:05:27;;;;;;;;;;;23.50;49.80;;;;;;5085847;28;19989;-66
2022/01/14 08:07:55;;;;;;;;;;;23.40;49.90;;;;;;5084461;28;20048;-68
2022/01/14 08:10:20;;;;;;;;;;;23.40;50.10;;;;;;5080943;28;19919;-70
2022/01/14 08:12:46;;;;;;;;;;;23.40;50.10;;;;;;5086035;28;19912;-70
2022/01/14 08:15:12;;;;;;;;;;;23.40;50.20;;;;;;5086468;28;19919;-67
2022/01/14 08:17:37;;;;;;;;;;;23.50;50.30;;;;;;5083346;28;19916;-66
2022/01/14 08:20:04;;;;;;;;;;;23.50;50.50;;;;;;5083717;28;19920;-69
2022/01/14 08:22:31;;;;;;;;;;;23.50;50.60;;;;;;5082510;28;19916;-69
2022/01/14 08:24:57;;;;;;;;;;;23.50;50.70;;;;;;5080815;28;19913;-71
2022/01/14 08:27:22;;;;;;;;;;;23.50;50.80;;;;;;5086819;28;19999;-68
2022/01/14 08:29:50;;;;;;;;;;;23.50;50.60;;;;;;5083419;28;20398;-71
2022/01/14 08:32:15;;;;;;;;;;;23.50;51.10;;;;;;5084674;28;19923;-69
2022/01/14 08:34:41;;;;;;;;;;;23.50;50.90;;;;;;5081874;28;19924;-72
2022/01/14 08:37:07;;;;;;;;;;;23.50;49.90;;;;;;5087293;28;20029;-68
2022/01/14 08:39:33;;;;;;;;;;;23.40;46.80;;;;;;5085164;28;20383;-72
2022/01/14 08:41:59;;;;;;;;;;;23.40;46.00;;;;;;5074103;28;19995;-71
2022/01/14 08:44:25;;;;;;;;;;;23.30;46.00;;;;;;5083347;28;20041;-66
2022/01/14 08:46:52;;;;;;;;;;;23.20;46.00;;;;;;5086987;28;19987;-69
2022/01/14 08:49:17;;;;;;;;;;;23.20;46.00;;;;;;5081531;28;19913;-71
2022/01/14 08:51:43;;;;;;;;;;;23.20;46.00;;;;;;5085266;28;19912;-69
2022/01/14 08:54:08;;;;;;;;;;;23.20;45.90;;;;;;5084356;28;19919;-67
2022/01/14 08:56:34;;;;;;;;;;;23.10;46.10;;;;;;5085221;28;20279;-67
2022/01/14 08:59:00;;;;;;;;;;;23.10;46.00;;;;;;5085102;28;20663;-65
2022/01/14 09:01:26;;;;;;;;;;;23.10;46.40;;;;;;5084771;28;19920;-63
2022/01/14 09:03:51;;;;;;;;;;;23.10;46.60;;;;;;5082518;28;19920;-69
2022/01/14 09:06:17;;;;;;;;;;;23.20;47.60;;;;;;5079509;28;19916;-65
2022/01/14 09:08:42;;;;;;;;;;;23.20;47.20;;;;;;5084719;28;20064;-64
2022/01/14 09:11:08;;;;;;;;;;;23.20;47.50;;;;;;5078674;28;20313;-69
2022/01/14 09:13:34;;;;;;;;;;;23.20;47.90;;;;;;5083819;28;20244;-68
2022/01/14 09:16:00;;;;;;;;;;;23.20;48.30;;;;;;5074800;28;19912;-73
2022/01/14 09:18:25;;;;;;;;;;;23.30;48.60;;;;;;5081256;28;19969;-67
2022/01/14 09:20:51;;;;;;;;;;;23.40;48.80;;;;;;5081318;28;20666;-67
2022/01/14 09:23:23;;;;;;;;;;;23.40;49.10;;;;;;5084618;28;20018;-76
2022/01/14 09:25:49;;;;;;;;;;;23.40;49.40;;;;;;5083651;28;19965;-71
2022/01/14 09:28:15;;;;;;;;;;;23.40;47.60;;;;;;5080989;28;20282;-72
2022/01/14 09:30:40;;;;;;;;;;;23.30;46.70;;;;;;5085701;28;19927;-70
2022/01/14 09:33:06;;;;;;;;;;;23.30;46.40;;;;;;5082210;28;20058;-69
2022/01/14 09:35:32;;;;;;;;;;;23.20;46.60;;;;;;5085290;28;20376;-70
2022/01/14 09:37:58;;;;;;;;;;;23.20;46.20;;;;;;5077018;28;19920;-69
2022/01/14 09:40:23;;;;;;;;;;;23.20;46.20;;;;;;5084853;28;19916;-67
2022/01/14 09:42:50;;;;;;;;;;;23.20;46.20;;;;;;5086616;28;20559;-71
2022/01/14 09:45:17;;;;;;;;;;;23.20;46.30;;;;;;5081774;28;20459;-70
2022/01/14 09:47:45;;;;;;;;;;;23.20;46.30;;;;;;5084087;28;19923;-69
2022/01/14 09:50:11;;;;;;;;;;;23.10;46.30;;;;;;5085089;28;19912;-71
2022/01/14 09:52:37;;;;;;;;;;;23.10;46.40;;;;;;5080389;28;19930;-70
2022/01/14 09:55:03;;;;;;;;;;;23.10;46.40;;;;;;5082751;28;20451;-68
2022/01/14 09:57:29;;;;;;;;;;;23.10;46.30;;;;;;5074801;28;19920;-70
2022/01/14 09:59:54;;;;;;;;;;;23.10;46.40;;;;;;5083889;28;20367;-72
2022/01/14 10:02:29;;;;;;;;;;;23.10;46.40;;;;;;5085275;28;19958;-70
2022/01/14 10:04:54;;;;;;;;;;;23.10;46.40;;;;;;5081059;28;19916;-68
2022/01/14 10:07:20;;;;;;;;;;;23.10;46.50;;;;;;5081721;28;20018;-68
2022/01/14 10:09:54;;;;;;;;;;;23.10;46.40;;;;;;5098568;28;19973;-72
2022/01/14 10:12:20;;;;;;;;;;;23.10;46.60;;;;;;5089969;28;19995;-71
2022/01/14 10:14:53;;;;;;;;;;;23.10;46.50;;;;;;5091115;28;20338;-71
2022/01/14 10:17:19;;;;;;;;;;;23.10;46.60;;;;;;5086185;28;19912;-69
2022/01/14 10:19:45;;;;;;;;;;;23.10;46.60;;;;;;5086382;28;19918;-68
2022/01/14 10:22:24;;;;;;;;;;;23.10;46.60;;;;;;5082264;28;20301;-70
2022/01/14 10:25:08;;;;;;;;;;;23.10;46.70;;;;;;5083566;28;19916;-71
2022/01/14 10:27:38;;;;;;;;;;;23.10;46.70;;;;;;5087906;28;20194;-70
2022/01/14 10:30:13;;;;;;;;;;;23.10;46.70;;;;;;5087154;28;19957;-68
2022/01/14 10:32:39;;;;;;;;;;;23.10;46.70;;;;;;5088731;28;20346;-68
2022/01/14 10:35:06;;;;;;;;;;;23.10;46.80;;;;;;5085851;28;20249;-71
2022/01/14 10:37:32;;;;;;;;;;;23.10;46.90;;;;;;5084685;28;19918;-68
2022/01/14 10:39:58;;;;;;;;;;;23.10;46.80;;;;;;5082897;28;20006;-68
2022/01/14 10:42:33;;;;;;;;;;;23.10;46.90;;;;;;5085099;28;19922;-67
2022/01/14 10:45:17;;;;;;;;;;;23.10;46.90;;;;;;5079796;28;20011;-71
2022/01/14 10:47:49;;;;;;;;;;;23.10;47.00;;;;;;5080881;28;19920;-70
2022/01/14 10:50:15;;;;;;;;;;;23.10;47.10;;;;;;5083539;28;20360;-72
2022/01/14 10:52:40;;;;;;;;;;;23.00;47.10;;;;;;5078433;28;20011;-68
2022/01/14 10:55:06;;;;;;;;;;;23.10;47.10;;;;;;5078983;28;20056;-69
2022/01/14 10:57:32;;;;;;;;;;;23.00;47.10;;;;;;5077917;28;20451;-70
2022/01/14 11:00:22;;;;;;;;;;;23.00;47.10;;;;;;5080879;28;19926;-69
2022/01/14 11:02:52;;;;;;;;;;;23.10;47.20;;;;;;5079945;28;20263;-72
2022/01/14 11:05:19;;;;;;;;;;;23.10;47.20;;;;;;5080052;28;20026;-69
2022/01/14 11:07:45;;;;;;;;;;;23.10;47.20;;;;;;5081577;28;19920;-70
2022/01/14 11:10:14;;;;;;;;;;;23.10;47.30;;;;;;5077753;28;19916;-68
2022/01/14 11:12:40;;;;;;;;;;;23.10;47.30;;;;;;5078549;28;19916;-70
2022/01/14 11:15:07;;;;;;;;;;;23.00;47.40;;;;;;5079959;28;19989;-69
2022/01/14 11:17:32;;;;;;;;;;;23.00;47.40;;;;;;5078197;28;19927;-69
2022/01/14 11:19:58;;;;;;;;;;;23.10;47.40;;;;;;5079631;28;20007;-69
2022/01/14 11:25:11;;;;;;;;;;;23.00;47.30;;;;;;5078832;28;19923;-68
2022/01/14 11:27:38;;;;;;;;;;;23.00;47.20;;;;;;5083518;28;20347;-69
2022/01/14 11:30:03;;;;;;;;;;;23.10;47.20;;;;;;5081055;28;20022;-69
2022/01/14 11:32:49;;;;;;;;;;;23.10;47.20;;;;;;5081943;28;20339;-69
2022/01/14 11:35:25;;;;;;;;;;;23.00;47.20;;;;;;5083574;28;19951;-66
2022/01/14 11:37:51;;;;;;;;;;;23.10;47.30;;;;;;5083858;28;19927;-68
2022/01/14 11:40:17;;;;;;;;;;;23.00;47.30;;;;;;5083334;28;19916;-70
2022/01/14 11:42:50;;;;;;;;;;;23.00;47.30;;;;;;5084865;28;19927;-69
2022/01/14 11:45:20;;;;;;;;;;;23.10;47.40;;;;;;5084940;28;19974;-69
2022/01/14 11:47:49;;;;;;;;;;;23.10;47.40;;;;;;5078712;28;20015;-68
2022/01/14 11:50:18;;;;;;;;;;;23.10;47.50;;;;;;5083902;28;20146;-68
2022/01/14 11:52:44;;;;;;;;;;;23.10;47.40;;;;;;5085866;28;19942;-69
2022/01/14 11:55:22;;;;;;;;;;;23.10;47.40;;;;;;5082647;28;20264;-72
2022/01/14 11:57:49;;;;;;;;;;;23.10;47.40;;;;;;5096555;28;19957;-69
2022/01/14 12:00:30;;;;;;;;;;;23.10;47.40;;;;;;5078188;28;19916;-69
2022/01/14 12:03:13;;;;;;;;;;;23.10;47.50;;;;;;5081629;28;19920;-69
2022/01/14 12:05:50;;;;;;;;;;;23.10;47.50;;;;;;5080755;28;20348;-70
2022/01/14 12:08:18;;;;;;;;;;;23.10;47.70;;;;;;5079486;28;20031;-71
2022/01/14 12:10:48;;;;;;;;;;;23.10;47.60;;;;;;5073041;28;20388;-68
2022/01/14 12:13:40;;;;;;;;;;;23.10;47.70;;;;;;5076428;28;19920;-70
2022/01/14 12:19:03;;;;;;;;;;;23.10;47.80;;;;;;5077347;28;20027;-69
2022/01/14 12:21:37;;;;;;;;;;;23.10;47.70;;;;;;5078022;28;19920;-69
2022/01/14 12:24:18;;;;;;;;;;;23.20;47.80;;;;;;5077337;28;20539;-69
2022/01/14 12:26:55;;;;;;;;;;;23.10;47.70;;;;;;5076974;28;20291;-71
2022/01/14 12:29:34;;;;;;;;;;;23.20;48.30;;;;;;5075309;28;19928;-70
2022/01/14 12:32:20;;;;;;;;;;;23.20;48.30;;;;;;5074994;28;19939;-70
2022/01/14 12:34:49;;;;;;;;;;;23.20;47.90;;;;;;5077943;28;20283;-70
2022/01/14 12:37:15;;;;;;;;;;;23.20;48.40;;;;;;5080392;28;19959;-71
2022/01/14 12:39:40;;;;;;;;;;;23.20;48.00;;;;;;5075814;28;20013;-67
2022/01/14 12:42:06;;;;;;;;;;;23.20;48.00;;;;;;5074994;28;19998;-66
2022/01/14 12:44:38;;;;;;;;;;;23.20;48.00;;;;;;5076455;28;20011;-68
2022/01/14 12:47:09;;;;;;;;;;;23.20;48.20;;;;;;5077243;28;19916;-70
2022/01/14 12:49:34;;;;;;;;;;;23.20;48.20;;;;;;5080680;28;19974;-70
2022/01/14 12:52:04;;;;;;;;;;;23.20;48.20;;;;;;5079231;28;19920;-67
2022/01/14 12:54:33;;;;;;;;;;;23.20;48.10;;;;;;5080766;28;19999;-67
2022/01/14 12:56:59;;;;;;;;;;;23.20;48.10;;;;;;5074974;28;19920;-69
2022/01/14 12:59:25;;;;;;;;;;;23.20;48.50;;;;;;5081372;28;20342;-66
2022/01/14 13:01:52;;;;;;;;;;;23.20;48.50;;;;;;5081115;28;19927;-65
2022/01/14 13:04:18;;;;;;;;;;;23.20;48.50;;;;;;5082391;28;19916;-71
2022/01/14 13:06:46;;;;;;;;;;;23.20;48.40;;;;;;5077957;28;19920;-70
2022/01/14 13:09:17;;;;;;;;;;;23.20;48.30;;;;;;5080548;28;19923;-68
2022/01/14 13:11:45;;;;;;;;;;;23.20;48.90;;;;;;5071482;28;20387;-66
2022/01/14 13:14:16;;;;;;;;;;;23.20;48.40;;;;;;5083554;28;19912;-65
2022/01/14 13:16:45;;;;;;;;;;;23.20;48.40;;;;;;5074754;28;20341;-68
2022/01/14 13:19:21;;;;;;;;;;;23.20;48.40;;;;;;5078550;28;19936;-66
2022/01/14 13:21:46;;;;;;;;;;;23.20;48.40;;;;;;5074892;28;20225;-68
2022/01/14 13:24:22;;;;;;;;;;;23.20;48.50;;;;;;5081435;28;19920;-69
2022/01/14 13:27:02;;;;;;;;;;;23.10;48.50;;;;;;5076469;28;19927;-69
2022/01/14 13:29:33;;;;;;;;;;;23.10;48.50;;;;;;5079351;28;19938;-69
2022/01/14 13:31:59;;;;;;;;;;;23.10;48.50;;;;;;5074577;28;19916;-71
2022/01/14 13:34:24;;;;;;;;;;;23.10;48.50;;;;;;5074234;28;19923;-70
2022/01/14 13:36:50;;;;;;;;;;;23.10;48.50;;;;;;5071714;28;19938;-67
2022/01/14 13:39:19;;;;;;;;;;;23.10;48.60;;;;;;5071779;28;20135;-66
2022/01/14 13:41:44;;;;;;;;;;;23.10;48.80;;;;;;5076878;28;19924;-71
2022/01/14 13:44:14;;;;;;;;;;;23.20;48.70;;;;;;5078207;28;19916;-66
2022/01/14 13:46:49;;;;;;;;;;;23.20;48.70;;;;;;5075652;28;19923;-68
2022/01/14 13:49:20;;;;;;;;;;;23.20;48.70;;;;;;5079528;28;20344;-70
2022/01/14 13:51:58;;;;;;;;;;;23.20;48.60;;;;;;5078796;28;20312;-70
2022/01/14 13:54:24;;;;;;;;;;;23.20;48.60;;;;;;5078619;28;19991;-69
2022/01/14 13:56:50;;;;;;;;;;;23.20;48.70;;;;;;5079857;28;19992;-66
2022/01/14 13:59:19;;;;;;;;;;;23.30;48.60;;;;;;5077619;28;20162;-68
2022/01/14 14:01:58;;;;;;;;;;;23.30;48.60;;;;;;5075645;28;19927;-66
2022/01/14 14:04:28;;;;;;;;;;;23.30;48.60;;;;;;5075067;28;20417;-70
2022/01/14 14:07:03;;;;;;;;;;;23.30;48.60;;;;;;5078561;28;19976;-71
2022/01/14 14:09:35;;;;;;;;;;;23.30;48.50;;;;;;5080807;28;19916;-67
2022/01/14 14:17:58;;;;;;;;;;;23.40;48.40;;;;;;5074452;28;20001;-71
2022/01/14 14:20:24;;;;;;;;;;;23.40;48.30;;;;;;5076682;28;19923;-67
2022/01/14 14:22:50;;;;;;;;;;;23.40;48.30;;;;;;5077521;28;20518;-69
2022/01/14 14:25:25;;;;;;;;;;;23.50;48.30;;;;;;5068249;28;20119;-71
2022/01/14 14:27:58;;;;;;;;;;;23.50;48.20;;;;;;5077237;28;20418;-70
2022/01/14 14:30:31;;;;;;;;;;;23.50;48.20;;;;;;5073630;28;19965;-70
2022/01/14 14:32:57;;;;;;;;;;;23.50;48.20;;;;;;5074391;28;19991;-70
2022/01/14 14:35:22;;;;;;;;;;;23.50;48.20;;;;;;5077556;28;20497;-71
2022/01/14 14:37:55;;;;;;;;;;;23.50;48.10;;;;;;5077578;28;20020;-72
2022/01/14 14:40:24;;;;;;;;;;;23.60;48.10;;;;;;5072744;28;19932;-70
2022/01/14 14:42:50;;;;;;;;;;;23.50;48.10;;;;;;5074757;28;20329;-66
2022/01/14 14:45:15;;;;;;;;;;;23.50;48.10;;;;;;5078868;28;19920;-70
2022/01/14 14:47:41;;;;;;;;;;;23.50;48.00;;;;;;5072554;28;19912;-70
2022/01/14 14:50:08;;;;;;;;;;;23.60;48.20;;;;;;5074933;28;19916;-70
2022/01/14 14:52:39;;;;;;;;;;;23.50;48.30;;;;;;5076449;28;19916;-67
2022/01/14 14:55:07;;;;;;;;;;;23.60;48.20;;;;;;5073919;28;19920;-67